Time;durP1;ratioP1;P1;durP2;ratioP2;P2;SDS_P1;SDS_P2;PMS_P1;PMS_P2;Temp;Humidity;BMP_temperature;BMP_pressure;BME280_temperature;BME280_humidity;BME280_pressure;Samples;Min_cycle;Max_cycle;Signal;HPM_P1;HPM_P2
2021/07/26 00:01:29;;;;;;;18.27;13.98;;;;;;;21.54;61.95;99622.44;4914657;28;97113;-84
2021/07/26 00:03:54;;;;;;;20.83;14.68;;;;;;;21.46;62.42;99616.94;4914861;28;97139;-84
2021/07/26 00:06:20;;;;;;;14.57;13.13;;;;;;;21.50;62.45;99620.16;4913293;28;101847;-85
2021/07/26 00:08:45;;;;;;;15.65;13.63;;;;;;;21.42;62.59;99605.69;4898254;28;101243;-84
2021/07/26 00:11:11;;;;;;;18.75;14.35;;;;;;;21.44;62.46;99609.09;4898116;28;96975;-84
2021/07/26 00:13:38;;;;;;;16.02;14.27;;;;;;;21.44;62.93;99606.41;4913955;28;97308;-85
2021/07/26 00:16:04;;;;;;;17.90;13.85;;;;;;;21.48;62.58;99599.81;4914581;28;100842;-84
2021/07/26 00:18:31;;;;;;;17.70;13.80;;;;;;;21.46;63.07;99601.75;4914061;28;99974;-83
2021/07/26 00:20:57;;;;;;;16.33;14.15;;;;;;;21.45;62.84;99602.75;4898729;28;96716;-84
2021/07/26 00:23:23;;;;;;;16.92;13.82;;;;;;;21.42;63.09;99597.69;4898524;28;96746;-84
2021/07/26 00:25:49;;;;;;;19.80;14.07;;;;;;;21.42;63.04;99595.03;4898531;28;101310;-84
2021/07/26 00:28:14;;;;;;;15.63;14.00;;;;;;;21.37;63.39;99591.91;4914571;28;97931;-85
2021/07/26 00:30:40;;;;;;;14.70;13.15;;;;;;;21.34;63.43;99596.66;4913996;28;96565;-84
2021/07/26 00:36:49;;;;;;;16.25;14.55;;;;;;;21.34;63.45;99589.50;4928746;28;98457;-84
2021/07/26 00:39:20;;;;;;;16.13;14.10;;;;;;;21.36;63.87;99602.72;4886496;28;101398;-84
2021/07/26 00:41:47;;;;;;;14.77;13.20;;;;;;;21.37;63.62;99599.09;4901358;28;97308;-85
2021/07/26 00:44:14;;;;;;;17.17;14.05;;;;;;;21.35;63.59;99609.03;4917949;28;97030;-85
2021/07/26 00:46:40;;;;;;;17.48;13.70;;;;;;;21.27;64.02;99612.41;4917169;28;99078;-84
2021/07/26 00:49:08;;;;;;;16.50;14.43;;;;;;;21.35;63.96;99607.22;4901855;28;101357;-84
2021/07/26 00:51:35;;;;;;;18.67;14.60;;;;;;;21.25;64.27;99601.84;4901157;28;97007;-85
2021/07/26 00:54:02;;;;;;;16.20;13.98;;;;;;;21.21;64.09;99608.44;4901700;28;98120;-84
2021/07/26 00:56:27;;;;;;;16.90;13.88;;;;;;;21.24;64.18;99610.00;4916372;28;101466;-85
2021/07/26 00:58:53;;;;;;;16.02;14.32;;;;;;;21.22;64.35;99612.81;4901361;28;101617;-84
2021/07/26 01:01:18;;;;;;;19.00;14.20;;;;;;;21.34;64.00;99613.53;4901150;28;96649;-85
2021/07/26 01:03:44;;;;;;;17.88;14.35;;;;;;;21.24;64.42;99616.19;4901332;28;96959;-84
2021/07/26 01:06:12;;;;;;;21.17;14.93;;;;;;;21.27;64.42;99607.06;4901282;28;101293;-84
2021/07/26 01:08:37;;;;;;;18.33;14.45;;;;;;;21.31;64.08;99602.28;4900671;28;101529;-85
2021/07/26 01:11:04;;;;;;;17.05;15.13;;;;;;;21.20;64.60;99612.09;4901327;28;96697;-85
2021/07/26 01:13:30;;;;;;;16.85;14.48;;;;;;;21.28;64.71;99615.91;4917486;28;96680;-85
2021/07/26 01:15:56;;;;;;;20.42;14.95;;;;;;;21.21;64.47;99618.28;4901271;28;101116;-84
2021/07/26 01:18:25;;;;;;;19.70;13.95;;;;;;;21.10;64.76;99605.91;4917207;28;97973;-86
2021/07/26 01:21:01;;;;;;;20.73;14.18;;;;;;;21.10;64.86;99607.72;4900848;28;96819;-84
2021/07/26 01:23:29;;;;;;;19.65;15.30;;;;;;;21.15;64.68;99614.34;4916495;28;97257;-85
2021/07/26 01:25:55;;;;;;;16.95;14.25;;;;;;;21.11;64.83;99609.41;4917054;28;101166;-85
2021/07/26 01:28:22;;;;;;;16.08;14.32;;;;;;;21.11;64.86;99610.25;4916061;28;101163;-85
2021/07/26 01:30:48;;;;;;;15.20;12.77;;;;;;;21.12;64.82;99611.09;4916601;28;96627;-85
2021/07/26 01:33:15;;;;;;;18.27;14.30;;;;;;;21.11;64.82;99614.75;4916781;28;96776;-85
2021/07/26 01:35:41;;;;;;;17.63;14.85;;;;;;;21.11;64.69;99607.56;4899825;28;100676;-85
2021/07/26 01:38:07;;;;;;;15.77;14.07;;;;;;;21.16;64.91;99613.34;4933640;28;98236;-84
2021/07/26 01:40:36;;;;;;;17.50;14.68;;;;;;;21.09;64.83;99603.34;4916467;28;97204;-85
2021/07/26 01:43:04;;;;;;;16.08;13.60;;;;;;;21.04;65.05;99601.13;4916642;28;97135;-85
2021/07/26 01:45:33;;;;;;;15.93;13.35;;;;;;;21.10;64.69;99595.22;4899598;28;101266;-84
2021/07/26 01:48:10;;;;;;;19.48;13.88;;;;;;;21.14;64.84;99596.63;4933020;28;98274;-85
2021/07/26 01:50:42;;;;;;;17.50;13.98;;;;;;;21.15;65.16;99600.16;4916581;28;96950;-85
2021/07/26 01:53:08;;;;;;;16.13;13.60;;;;;;;21.16;65.03;99593.84;4917138;28;96572;-84
2021/07/26 01:55:34;;;;;;;15.98;13.55;;;;;;;21.28;64.34;99608.75;4932413;28;98565;-85
2021/07/26 01:58:00;;;;;;;16.60;13.98;;;;;;;21.21;64.95;99608.44;4916338;28;101119;-84
2021/07/26 02:00:26;;;;;;;17.48;14.65;;;;;;;21.14;65.16;99607.31;4916143;28;96625;-85
2021/07/26 02:02:51;;;;;;;16.75;15.07;;;;;;;21.09;65.15;99608.69;4916927;28;96895;-83
2021/07/26 02:05:17;;;;;;;20.13;14.48;;;;;;;21.09;65.09;99604.22;4900343;28;101189;-84
2021/07/26 02:07:42;;;;;;;16.17;14.00;;;;;;;21.15;65.07;99611.69;4899852;28;101419;-85
2021/07/26 02:10:08;;;;;;;16.73;13.93;;;;;;;21.09;65.23;99608.69;4899856;28;98111;-84
2021/07/26 02:12:34;;;;;;;16.40;14.63;;;;;;;21.09;65.54;99609.56;4899501;28;97131;-84
2021/07/26 02:15:00;;;;;;;18.77;15.32;;;;;;;21.11;65.51;99610.25;4900320;28;101390;-84
2021/07/26 02:17:26;;;;;;;15.73;14.23;;;;;;;21.07;65.33;99611.50;4915787;28;101627;-85
2021/07/26 02:19:51;;;;;;;17.80;14.75;;;;;;;21.10;65.25;99621.06;4932704;28;96665;-83
2021/07/26 02:22:18;;;;;;;15.95;14.25;;;;;;;21.11;65.18;99622.75;4900381;28;97028;-84
2021/07/26 02:24:43;;;;;;;16.33;13.85;;;;;;;20.88;65.54;99611.44;4916380;28;97773;-84
2021/07/26 02:27:09;;;;;;;17.85;14.32;;;;;;;20.80;66.01;99614.81;4916936;28;98507;-83
2021/07/26 02:29:34;;;;;;;17.45;13.85;;;;;;;20.81;65.83;99616.47;4915370;28;97011;-84
2021/07/26 02:32:00;;;;;;;16.60;14.85;;;;;;;20.77;66.06;99631.06;4900187;28;97053;-85
2021/07/26 02:34:25;;;;;;;15.98;14.27;;;;;;;20.80;65.72;99628.13;4931308;28;98160;-87
2021/07/26 02:36:51;;;;;;;16.63;14.02;;;;;;;20.79;65.75;99627.25;4914960;28;101314;-85
2021/07/26 02:39:16;;;;;;;15.85;14.20;;;;;;;20.79;65.75;99629.09;4932122;28;96981;-84
2021/07/26 02:41:43;;;;;;;19.35;14.15;;;;;;;20.72;65.95;99627.97;4898306;28;96979;-85
2021/07/26 02:44:09;;;;;;;16.38;14.65;;;;;;;20.66;66.17;99629.34;4915775;28;100586;-84
2021/07/26 02:46:34;;;;;;;19.23;15.10;;;;;;;20.58;66.30;99637.97;4899422;28;101038;-85
2021/07/26 02:49:00;;;;;;;17.08;14.10;;;;;;;20.60;66.49;99637.88;4915967;28;97056;-84
2021/07/26 02:51:25;;;;;;;17.13;15.27;;;;;;;20.61;66.39;99628.88;4915897;28;96998;-84
2021/07/26 02:53:51;;;;;;;17.33;15.25;;;;;;;20.62;66.40;99633.22;4931942;28;98686;-84
2021/07/26 02:56:16;;;;;;;16.92;15.32;;;;;;;20.68;66.23;99627.38;4915310;28;97945;-85
2021/07/26 02:58:42;;;;;;;15.95;14.25;;;;;;;20.67;66.32;99633.69;4914917;28;97792;-84
2021/07/26 03:01:11;;;;;;;17.88;15.65;;;;;;;20.77;66.14;99634.59;4916277;28;96898;-84
2021/07/26 03:03:40;;;;;;;17.80;15.07;;;;;;;20.72;66.39;99638.63;4915111;28;98493;-84
2021/07/26 03:06:26;;;;;;;24.30;15.13;;;;;;;20.68;66.64;99639.84;4931741;28;101298;-84
2021/07/26 03:08:51;;;;;;;17.58;15.73;;;;;;;20.52;67.18;99645.66;4932283;28;96629;-85
2021/07/26 03:11:17;;;;;;;17.30;15.57;;;;;;;20.64;67.00;99639.28;4915804;28;96799;-85
2021/07/26 03:13:45;;;;;;;18.35;15.88;;;;;;;20.47;67.48;99643.38;4914963;28;101510;-85
2021/07/26 03:16:12;;;;;;;17.23;15.43;;;;;;;20.44;67.66;99635.63;4947745;28;99941;-85
2021/07/26 03:18:39;;;;;;;20.58;17.05;;;;;;;20.42;67.94;99642.06;4915129;28;97015;-84
2021/07/26 03:21:04;;;;;;;16.42;14.48;;;;;;;20.51;67.75;99641.31;4931857;28;96852;-84
2021/07/26 03:23:31;;;;;;;18.98;16.17;;;;;;;20.54;67.47;99639.25;4914528;28;101064;-85
2021/07/26 03:25:57;;;;;;;20.45;16.17;;;;;;;20.86;66.38;99634.75;4931337;28;101116;-85
2021/07/26 03:28:22;;;;;;;18.25;14.88;;;;;;;20.65;66.90;99624.13;4931414;28;97166;-85
2021/07/26 03:30:48;;;;;;;16.73;15.00;;;;;;;20.71;67.01;99640.44;4931295;28;97404;-85
2021/07/26 03:33:13;;;;;;;18.20;15.65;;;;;;;20.57;67.40;99628.31;4931328;28;100884;-85
2021/07/26 03:35:39;;;;;;;17.02;15.25;;;;;;;20.62;67.37;99638.56;4914542;28;101524;-85
2021/07/26 03:38:07;;;;;;;17.88;15.95;;;;;;;20.55;67.72;99640.91;4915271;28;96863;-84
2021/07/26 03:40:34;;;;;;;19.58;15.48;;;;;;;20.60;67.43;99642.38;4931230;28;97540;-86
2021/07/26 03:43:01;;;;;;;18.17;15.82;;;;;;;20.61;67.35;99638.72;4930801;28;101241;-85
2021/07/26 03:45:27;;;;;;;18.02;16.20;;;;;;;20.64;67.36;99636.63;4914881;28;101611;-85
2021/07/26 03:47:56;;;;;;;21.25;16.55;;;;;;;20.72;67.33;99639.47;4929981;28;97848;-86
2021/07/26 03:50:22;;;;;;;21.88;16.75;;;;;;;20.53;67.76;99631.38;4914753;28;97280;-85
2021/07/26 03:52:48;;;;;;;18.30;15.88;;;;;;;20.58;67.76;99635.31;4913071;28;101719;-86
2021/07/26 03:55:19;;;;;;;18.90;16.40;;;;;;;20.53;67.97;99634.88;4930162;28;100671;-85
2021/07/26 03:57:45;;;;;;;18.58;16.35;;;;;;;20.53;67.98;99636.69;4929680;28;97179;-85
2021/07/26 04:00:12;;;;;;;21.20;15.57;;;;;;;20.67;67.58;99636.34;4931404;28;96924;-85
2021/07/26 04:02:42;;;;;;;18.52;16.55;;;;;;;20.60;68.05;99637.88;4914728;28;101297;-85
2021/07/26 04:05:13;;;;;;;19.63;15.75;;;;;;;20.72;67.53;99639.47;4915488;28;98039;-85
2021/07/26 04:07:40;;;;;;;17.35;15.40;;;;;;;20.74;67.31;99645.50;4914546;28;96795;-85
2021/07/26 04:10:08;;;;;;;18.60;16.45;;;;;;;20.75;67.24;99644.53;4914113;28;96854;-85
2021/07/26 04:12:35;;;;;;;21.33;17.95;;;;;;;20.76;67.18;99642.69;4930064;28;101486;-85
2021/07/26 04:15:07;;;;;;;23.67;17.10;;;;;;;20.80;67.13;99646.81;4914763;28;101528;-84
2021/07/26 04:17:33;;;;;;;20.42;16.85;;;;;;;20.75;67.09;99643.69;4931473;28;96625;-86
2021/07/26 04:19:59;;;;;;;29.35;17.65;;;;;;;20.83;67.10;99659.00;4931085;28;96607;-85
2021/07/26 04:22:24;;;;;;;18.65;16.75;;;;;;;20.89;66.90;99661.16;4930870;28;97955;-84
2021/07/26 04:24:50;;;;;;;21.45;16.00;;;;;;;20.86;66.76;99662.28;4930194;28;98937;-85
2021/07/26 04:27:16;;;;;;;25.77;17.15;;;;;;;21.02;66.36;99653.75;4930583;28;96647;-84
2021/07/26 04:29:41;;;;;;;24.55;17.33;;;;;;;20.98;66.46;99665.69;4914061;28;96921;-85
2021/07/26 04:32:10;;;;;;;22.40;18.42;;;;;;;20.96;66.42;99656.97;4930570;28;100178;-85
2021/07/26 04:34:36;;;;;;;19.88;16.35;;;;;;;20.96;66.41;99664.97;4930179;28;98309;-86
2021/07/26 04:37:02;;;;;;;16.83;15.02;;;;;;;21.11;66.22;99657.44;4930442;28;96903;-84
2021/07/26 04:39:27;;;;;;;19.15;16.25;;;;;;;21.14;66.09;99655.31;4930709;28;97242;-84
2021/07/26 04:41:53;;;;;;;18.98;16.60;;;;;;;21.19;66.08;99657.59;4912814;28;101057;-85
2021/07/26 04:44:18;;;;;;;20.95;15.52;;;;;;;21.29;65.90;99661.13;4930270;28;101497;-84
2021/07/26 04:46:44;;;;;;;19.98;16.77;;;;;;;21.23;66.17;99654.53;4929884;28;97081;-85
2021/07/26 04:49:09;;;;;;;19.23;16.60;;;;;;;21.32;65.92;99649.34;4930358;28;97154;-85
2021/07/26 04:51:35;;;;;;;19.10;16.15;;;;;;;21.34;65.68;99656.22;4913728;28;101630;-85
2021/07/26 04:54:01;;;;;;;18.08;15.98;;;;;;;21.34;65.77;99647.38;4930215;28;101754;-84
2021/07/26 04:56:26;;;;;;;18.13;15.55;;;;;;;21.31;65.94;99656.50;4930699;28;97033;-85
2021/07/26 04:58:52;;;;;;;22.98;16.17;;;;;;;21.38;65.67;99654.16;4929866;28;96998;-85
2021/07/26 05:01:17;;;;;;;19.35;17.35;;;;;;;21.35;65.73;99652.59;4931085;28;98513;-84
2021/07/26 05:03:43;;;;;;;23.08;18.05;;;;;;;21.37;65.71;99647.97;4929570;28;99982;-85
2021/07/26 05:06:08;;;;;;;20.63;17.27;;;;;;;21.39;65.61;99651.38;4930264;28;96860;-85
2021/07/26 05:08:34;;;;;;;21.55;17.63;;;;;;;21.39;65.81;99646.03;4930241;28;97352;-84
2021/07/26 05:10:59;;;;;;;21.95;18.20;;;;;;;21.49;65.80;99656.72;4929444;28;101240;-85
2021/07/26 05:13:25;;;;;;;21.23;16.90;;;;;;;21.56;65.43;99659.69;4897943;28;100102;-84
2021/07/26 05:15:50;;;;;;;19.83;17.13;;;;;;;21.59;65.45;99649.56;4929678;28;97092;-85
2021/07/26 05:18:16;;;;;;;26.45;17.55;;;;;;;21.54;65.73;99667.00;4930604;28;97167;-85
2021/07/26 05:20:41;;;;;;;19.63;17.63;;;;;;;21.51;65.77;99667.25;4931687;28;98648;-85
2021/07/26 05:23:09;;;;;;;23.25;17.65;;;;;;;21.55;66.06;99668.66;4933243;28;101239;-84
2021/07/26 05:25:35;;;;;;;17.77;15.98;;;;;;;21.61;65.58;99670.78;4900778;28;97500;-85
2021/07/26 05:28:00;;;;;;;19.55;17.10;;;;;;;21.62;65.23;99672.50;4933036;28;97121;-85
2021/07/26 05:30:26;;;;;;;18.35;16.42;;;;;;;21.64;65.17;99676.72;4916984;28;101136;-84
2021/07/26 05:32:53;;;;;;;18.75;15.63;;;;;;;21.63;65.15;99679.50;4932244;28;101432;-85
2021/07/26 05:35:19;;;;;;;22.02;17.10;;;;;;;21.60;65.21;99672.59;4916996;28;96752;-85
2021/07/26 05:37:45;;;;;;;18.23;16.30;;;;;;;21.63;65.38;99677.66;4900499;28;96709;-85
2021/07/26 05:40:11;;;;;;;19.75;16.60;;;;;;;21.51;65.89;99686.78;4932947;28;101934;-85
2021/07/26 05:42:36;;;;;;;20.55;18.33;;;;;;;21.47;66.17;99682.72;4932690;28;101819;-84
2021/07/26 05:45:04;;;;;;;23.15;17.70;;;;;;;21.58;65.99;99684.41;4932710;28;96825;-85
2021/07/26 05:47:30;;;;;;;22.13;17.17;;;;;;;21.61;65.83;99687.66;4916899;28;96872;-85
2021/07/26 05:49:56;;;;;;;19.15;16.27;;;;;;;21.63;65.98;99699.03;4915473;28;102223;-84
2021/07/26 05:52:21;;;;;;;24.15;17.58;;;;;;;21.64;65.90;99691.88;4932777;28;100805;-85
2021/07/26 05:54:47;;;;;;;17.80;15.73;;;;;;;21.61;65.79;99697.47;4932659;28;96608;-84
2021/07/26 05:57:15;;;;;;;21.52;18.35;;;;;;;21.55;66.26;99701.53;4932808;28;96900;-85
2021/07/26 05:59:40;;;;;;;18.95;17.05;;;;;;;21.63;65.89;99706.22;4932397;28;100392;-85
2021/07/26 06:02:06;;;;;;;21.38;19.13;;;;;;;21.68;65.73;99704.81;4932187;28;101775;-85
2021/07/26 06:04:31;;;;;;;19.42;17.35;;;;;;;21.77;65.26;99707.66;4932713;28;96814;-84
2021/07/26 06:06:58;;;;;;;17.92;16.13;;;;;;;21.79;65.28;99708.34;4932632;28;96785;-84
2021/07/26 06:09:24;;;;;;;18.15;16.35;;;;;;;21.80;65.42;99715.38;4932779;28;98096;-84
2021/07/26 06:11:51;;;;;;;18.48;16.50;;;;;;;21.90;65.07;99710.88;4915677;28;101248;-85
2021/07/26 06:14:18;;;;;;;17.30;15.57;;;;;;;21.91;65.00;99718.75;4915883;28;97223;-84
2021/07/26 06:16:48;;;;;;;18.58;16.58;;;;;;;21.93;64.98;99719.47;4931974;28;97849;-86
2021/07/26 06:19:15;;;;;;;18.92;16.92;;;;;;;22.01;64.67;99712.56;4932414;28;101742;-84
2021/07/26 06:21:41;;;;;;;23.75;17.45;;;;;;;22.06;64.67;99713.00;4931989;28;101576;-84
2021/07/26 06:24:06;;;;;;;25.38;17.48;;;;;;;22.06;64.67;99710.34;4915775;28;97035;-85
2021/07/26 06:26:32;;;;;;;18.02;15.68;;;;;;;22.21;64.22;99718.81;4948739;28;96909;-84
2021/07/26 06:28:57;;;;;;;19.67;17.67;;;;;;;22.32;63.78;99718.66;4931905;28;98627;-84
2021/07/26 06:31:23;;;;;;;18.27;16.38;;;;;;;22.36;63.76;99725.41;4914986;28;101615;-85
2021/07/26 06:33:48;;;;;;;20.23;16.73;;;;;;;22.60;63.36;99727.59;4931343;28;97015;-85
2021/07/26 06:36:14;;;;;;;22.92;16.05;;;;;;;22.75;62.99;99723.50;4921206;28;96938;-85
2021/07/26 06:38:40;;;;;;;31.63;17.08;;;;;;;22.98;62.24;99737.44;4885817;28;101842;-84
2021/07/26 06:41:06;;;;;;;20.30;16.70;;;;;;;23.16;62.00;99725.94;4895298;28;101381;-85
2021/07/26 06:43:32;;;;;;;19.50;16.35;;;;;;;23.37;61.38;99725.69;4928686;28;97125;-84
2021/07/26 06:45:58;;;;;;;19.65;17.55;;;;;;;23.64;60.97;99724.84;4927800;28;97197;-84
2021/07/26 06:48:24;;;;;;;18.60;16.73;;;;;;;25.26;57.09;99734.41;4925718;28;101146;-82
2021/07/26 06:50:50;;;;;;;20.08;15.52;;;;;;;26.15;55.05;99722.22;4925828;28;98382;-83
2021/07/26 06:53:15;;;;;;;20.98;15.88;;;;;;;25.47;56.76;99729.47;4915839;28;97102;-82
2021/07/26 06:55:41;;;;;;;19.02;14.70;;;;;;;25.43;56.81;99729.97;4932554;28;96921;-82
2021/07/26 06:58:07;;;;;;;19.25;16.95;;;;;;;25.94;55.41;99722.72;4930618;28;100910;-82
2021/07/26 07:00:33;;;;;;;19.10;16.13;;;;;;;25.58;56.49;99722.13;4899388;28;101046;-82
2021/07/26 07:02:59;;;;;;;22.17;15.85;;;;;;;25.40;56.74;99727.59;4914780;28;96608;-82
2021/07/26 07:05:25;;;;;;;19.45;16.05;;;;;;;25.22;57.16;99730.34;4932239;28;96963;-82
2021/07/26 07:07:50;;;;;;;16.23;14.55;;;;;;;25.13;57.39;99717.88;4931101;28;101178;-82
2021/07/26 07:10:16;;;;;;;17.45;14.93;;;;;;;25.08;57.64;99723.72;4931701;28;97762;-82
2021/07/26 07:12:42;;;;;;;17.67;14.90;;;;;;;25.08;57.64;99721.88;4931633;28;97253;-81
2021/07/26 07:15:08;;;;;;;17.90;15.27;;;;;;;25.07;57.31;99722.91;4940646;28;97173;-82
2021/07/26 07:17:34;;;;;;;18.00;15.13;;;;;;;25.28;57.21;99721.69;4915254;28;101484;-82
2021/07/26 07:20:00;;;;;;;16.33;14.70;;;;;;;25.38;56.67;99725.06;4915759;28;98390;-82
2021/07/26 07:22:25;;;;;;;16.77;15.00;;;;;;;25.49;56.49;99735.53;4899420;28;96650;-82
2021/07/26 07:24:50;;;;;;;18.65;14.30;;;;;;;25.57;56.77;99737.41;4911729;28;97061;-82
2021/07/26 07:27:16;;;;;;;15.48;13.95;;;;;;;25.68;56.66;99747.81;4927754;28;98208;-82
2021/07/26 07:29:42;;;;;;;15.07;13.60;;;;;;;25.78;56.49;99736.94;4930861;28;97852;-82
2021/07/26 07:32:12;;;;;;;17.45;15.52;;;;;;;25.78;56.46;99738.81;4930624;28;96701;-84
2021/07/26 07:34:41;;;;;;;16.63;14.37;;;;;;;25.70;55.95;99731.56;4915517;28;97031;-83
2021/07/26 07:37:09;;;;;;;17.20;14.98;;;;;;;25.58;56.58;99740.94;4914495;28;100437;-85
2021/07/26 07:39:36;;;;;;;19.45;15.43;;;;;;;25.55;56.62;99731.34;4901310;28;101398;-84
2021/07/26 07:42:03;;;;;;;21.90;14.60;;;;;;;25.50;56.56;99742.56;4910677;28;97208;-83
2021/07/26 07:44:32;;;;;;;18.45;16.55;;;;;;;25.42;56.38;99742.53;4885238;28;96863;-84
2021/07/26 07:47:02;;;;;;;19.73;16.60;;;;;;;25.35;56.95;99749.56;4929074;28;100285;-84
2021/07/26 07:49:28;;;;;;;17.30;15.17;;;;;;;25.42;57.11;99739.84;4897211;28;101181;-84
2021/07/26 07:51:55;;;;;;;16.40;14.60;;;;;;;25.34;56.75;99744.34;4914034;28;96799;-84
2021/07/26 07:54:22;;;;;;;20.27;15.15;;;;;;;25.35;57.11;99748.72;4946774;28;97267;-86
2021/07/26 07:56:48;;;;;;;15.50;14.05;;;;;;;25.44;56.85;99747.75;4915070;28;100519;-87
2021/07/26 07:59:14;;;;;;;18.45;15.43;;;;;;;25.68;56.21;99744.31;4928530;28;101198;-80
2021/07/26 08:01:40;;;;;;;17.05;15.27;;;;;;;25.50;56.51;99755.16;4911502;28;97101;-78
2021/07/26 08:04:06;;;;;;;17.50;14.98;;;;;;;25.60;56.75;99752.34;4911183;28;97493;-79
2021/07/26 08:06:32;;;;;;;16.40;14.55;;;;;;;25.69;56.56;99756.75;4911310;28;101248;-80
2021/07/26 08:08:57;;;;;;;16.70;15.00;;;;;;;25.66;56.45;99751.72;4913328;28;99012;-92
2021/07/26 08:11:23;;;;;;;16.92;15.00;;;;;;;25.69;56.43;99748.69;4915244;28;96885;-84
2021/07/26 08:13:48;;;;;;;19.27;14.25;;;;;;;25.84;56.19;99755.16;4914825;28;96907;-88
2021/07/26 08:16:14;;;;;;;16.60;14.90;;;;;;;26.13;55.63;99770.00;4927372;28;98972;-86
2021/07/26 08:18:40;;;;;;;17.60;15.80;;;;;;;26.22;54.87;99769.00;4926032;28;101550;-82
2021/07/26 08:21:05;;;;;;;17.05;15.40;;;;;;;26.96;53.66;99774.38;4902432;28;96948;-85
2021/07/26 08:23:31;;;;;;;17.30;15.40;;;;;;;27.95;51.46;99778.41;4931216;28;97020;-87
2021/07/26 08:25:56;;;;;;;16.02;14.48;;;;;;;30.24;47.28;99770.69;4929299;28;97964;-86
2021/07/26 08:28:22;;;;;;;20.50;14.13;;;;;;;31.25;44.75;99776.72;4929836;28;101128;-86
2021/07/26 08:30:48;;;;;;;16.38;14.18;;;;;;;32.36;42.30;99768.38;4929329;28;97339;-87
2021/07/26 08:33:13;;;;;;;15.00;13.40;;;;;;;33.80;40.27;99764.00;4908529;28;97398;-88
2021/07/26 08:35:39;;;;;;;15.88;14.18;;;;;;;33.75;39.33;99767.38;4918312;28;100265;-88
2021/07/26 08:38:05;;;;;;;21.10;14.32;;;;;;;33.76;39.21;99768.22;4926811;28;101136;-88
2021/07/26 08:40:32;;;;;;;14.00;12.52;;;;;;;33.92;39.05;99770.44;4925174;28;97167;-91
2021/07/26 08:43:03;;;;;;;16.33;13.98;;;;;;;33.47;40.30;99773.13;4912030;28;96840;-91
2021/07/26 08:45:30;;;;;;;15.38;12.23;;;;;;;32.80;41.22;99780.53;4928451;28;101984;-90
2021/07/26 08:47:58;;;;;;;15.30;12.77;;;;;;;33.71;40.04;99778.91;4927439;28;97979;-85
2021/07/26 08:50:24;;;;;;;17.98;12.50;;;;;;;34.10;39.03;99771.63;4927882;28;97585;-87
2021/07/26 08:52:50;;;;;;;14.73;12.20;;;;;;;33.60;40.30;99772.28;4922749;28;96839;-85
2021/07/26 08:55:17;;;;;;;15.25;12.13;;;;;;;32.93;41.24;99768.84;4913002;28;97953;-87
2021/07/26 08:57:44;;;;;;;17.10;12.43;;;;;;;33.36;40.59;99771.88;4915230;28;101507;-86
2021/07/26 09:00:11;;;;;;;14.95;13.65;;;;;;;34.47;38.01;99761.69;4930533;28;97273;-84
2021/07/26 09:02:37;;;;;;;14.50;13.13;;;;;;;35.00;37.71;99755.00;4931992;28;97201;-82
2021/07/26 09:05:03;;;;;;;16.58;12.32;;;;;;;36.12;36.23;99744.59;4912812;28;100727;-84
2021/07/26 09:07:28;;;;;;;13.10;12.00;;;;;;;36.66;35.93;99739.97;4930821;28;100643;-85
2021/07/26 09:09:54;;;;;;;13.10;11.90;;;;;;;36.72;35.91;99744.50;4931477;28;97123;-85
2021/07/26 09:12:35;;;;;;;12.57;11.43;;;;;;;36.01;36.37;99748.97;4914653;28;97067;-87
2021/07/26 09:15:02;;;;;;;12.52;11.48;;;;;;;36.01;36.10;99754.41;4930283;28;98128;-86
2021/07/26 09:17:46;;;;;;;11.30;10.20;;;;;;;35.47;35.19;99747.97;4930502;28;97628;-87
2021/07/26 09:20:12;;;;;;;11.85;10.80;;;;;;;35.36;35.01;99746.00;4914385;28;96886;-89
2021/07/26 09:22:40;;;;;;;11.18;10.07;;;;;;;34.61;36.86;99752.41;4915610;28;97151;-85
2021/07/26 09:25:21;;;;;;;14.50;10.98;;;;;;;35.17;37.14;99745.19;4914475;28;100854;-84
2021/07/26 09:28:12;;;;;;;13.95;11.25;;;;;;;35.14;37.36;99743.75;4929297;28;101416;-87
2021/07/26 09:30:41;;;;;;;12.32;11.25;;;;;;;35.36;37.50;99748.72;4892992;28;97474;-87
2021/07/26 09:33:23;;;;;;;12.13;10.82;;;;;;;35.19;37.66;99748.50;4932522;28;96801;-88
2021/07/26 09:36:12;;;;;;;15.13;11.35;;;;;;;35.12;37.89;99751.31;4899570;28;101046;-87
2021/07/26 09:38:49;;;;;;;11.85;10.65;;;;;;;34.96;36.72;99743.69;4921765;28;99354;-83
2021/07/26 09:41:16;;;;;;;11.40;10.32;;;;;;;34.64;38.26;99746.50;4943816;28;97234;-83
2021/07/26 09:43:42;;;;;;;12.45;10.45;;;;;;;34.46;39.18;99747.25;4930099;28;97387;-82
2021/07/26 09:46:07;;;;;;;12.18;11.07;;;;;;;34.05;37.29;99753.22;4928492;28;98415;-80
2021/07/26 09:48:33;;;;;;;12.05;10.93;;;;;;;33.81;38.08;99758.34;4929583;28;97787;-80
2021/07/26 09:51:00;;;;;;;11.98;10.88;;;;;;;33.48;39.07;99760.34;4928469;28;97112;-82
2021/07/26 09:53:28;;;;;;;12.63;10.85;;;;;;;33.34;39.71;99754.97;4928846;28;97473;-82
2021/07/26 09:55:58;;;;;;;12.48;11.27;;;;;;;32.51;39.98;99748.38;4944663;28;101355;-82
2021/07/26 09:58:38;;;;;;;12.57;11.38;;;;;;;32.75;40.66;99746.91;4929075;28;101155;-81
2021/07/26 10:01:09;;;;;;;12.55;11.00;;;;;;;32.78;40.32;99749.19;4912520;28;96794;-81
2021/07/26 10:03:39;;;;;;;12.20;11.00;;;;;;;32.62;40.48;99750.47;4925757;28;98381;-79
2021/07/26 10:06:06;;;;;;;13.35;11.93;;;;;;;32.79;39.43;99750.88;4918062;28;98046;-81
2021/07/26 10:08:31;;;;;;;12.32;11.23;;;;;;;32.40;39.93;99750.63;4913131;28;100998;-80
2021/07/26 10:10:58;;;;;;;13.20;11.98;;;;;;;32.12;40.91;99750.81;4919651;28;97185;-79
2021/07/26 10:13:24;;;;;;;12.07;10.98;;;;;;;32.39;40.92;99751.69;4909985;28;96794;-79
2021/07/26 10:15:50;;;;;;;11.85;10.70;;;;;;;32.45;40.34;99748.16;4920778;28;101048;-89
2021/07/26 10:18:15;;;;;;;12.68;11.45;;;;;;;32.38;40.15;99755.44;4923822;28;101619;-88
2021/07/26 10:20:46;;;;;;;12.65;11.45;;;;;;;31.90;41.45;99758.28;4930210;28;96777;-90
2021/07/26 10:23:20;;;;;;;14.48;12.00;;;;;;;32.13;41.44;99752.47;4915505;28;97080;-86
2021/07/26 10:25:53;;;;;;;16.95;11.65;;;;;;;32.32;42.41;99763.56;4931941;28;101956;-87
2021/07/26 10:28:27;;;;;;;12.43;11.07;;;;;;;32.41;41.44;99767.78;4916070;28;101613;-90
2021/07/26 10:30:53;;;;;;;11.90;10.85;;;;;;;32.45;42.13;99758.19;4933442;28;96867;-88
2021/07/26 10:33:18;;;;;;;13.70;12.38;;;;;;;32.34;41.93;99756.06;4933202;28;96611;-92
2021/07/26 10:35:51;;;;;;;14.00;11.65;;;;;;;32.31;41.96;99757.31;4917211;28;101697;-89
2021/07/26 10:38:43;;;;;;;13.57;11.65;;;;;;;32.21;42.62;99754.19;4933297;28;101641;-89
2021/07/26 10:41:09;;;;;;;12.68;11.48;;;;;;;32.14;42.15;99754.16;4910264;28;96806;-89
2021/07/26 10:43:54;;;;;;;12.07;10.90;;;;;;;32.05;42.59;99749.97;4901508;28;96959;-89
2021/07/26 10:46:20;;;;;;;13.45;12.15;;;;;;;31.96;43.00;99756.63;4932776;28;100409;-89
2021/07/26 10:48:50;;;;;;;13.50;11.88;;;;;;;31.85;42.86;99755.31;4933170;28;99950;-90
2021/07/26 10:51:36;;;;;;;;;;;;;;;31.52;43.21;99755.19;4931414;28;97241;-89
2021/07/26 10:54:01;;;;;;;12.55;10.95;;;;;;;31.56;43.23;99754.59;4916729;28;96885;-90
2021/07/26 10:56:27;;;;;;;12.27;11.07;;;;;;;31.60;42.74;99756.91;4916745;28;101987;-88
2021/07/26 10:58:58;;;;;;;15.10;12.20;;;;;;;31.42;42.19;99754.75;4916519;28;101129;-89
2021/07/26 11:01:23;;;;;;;12.48;11.38;;;;;;;31.34;42.58;99748.41;4932652;28;96707;-88
2021/07/26 11:03:53;;;;;;;12.77;11.48;;;;;;;31.27;42.99;99744.84;4916976;28;96969;-88
2021/07/26 11:06:34;;;;;;;12.82;11.35;;;;;;;31.39;43.69;99746.97;4915947;28;101205;-89
2021/07/26 11:09:18;;;;;;;11.90;10.77;;;;;;;31.46;44.52;99746.00;4914963;28;101392;-88
2021/07/26 11:11:47;;;;;;;14.05;11.88;;;;;;;31.40;44.36;99738.66;4931626;28;97510;-88
2021/07/26 11:14:14;;;;;;;13.82;12.38;;;;;;;31.33;44.51;99733.19;4915489;28;97096;-88
2021/07/26 11:16:49;;;;;;;13.43;12.10;;;;;;;31.26;44.87;99737.72;4916441;28;100485;-88
2021/07/26 11:22:46;;;;;;;15.13;13.20;;;;;;;31.27;45.19;99727.72;4916439;28;96839;-89